createdAt,value
2018-11-01T13:03:47.666Z,84.38
2018-11-01T13:04:47.659Z,84.38
2018-11-01T13:05:47.651Z,78.75
2018-11-01T13:06:47.643Z,78.75
2018-11-01T13:07:47.620Z,78.75
2018-11-01T13:08:47.611Z,78.75
2018-11-01T13:09:47.642Z,78.75
2018-11-01T13:10:47.653Z,78.75
2018-11-01T13:11:47.616Z,78.75
2018-11-01T13:12:47.610Z,78.75
2018-11-01T13:13:47.594Z,78.75
2018-11-01T13:14:47.589Z,78.75
2018-11-01T13:15:47.637Z,84.38
2018-11-01T13:16:47.582Z,84.38
2018-11-01T13:17:47.657Z,84.38
2018-11-01T13:18:47.573Z,90.00
2018-11-01T13:19:47.880Z,90.00
2018-11-01T13:20:47.562Z,90.00
2018-11-01T13:21:47.574Z,95.63
2018-11-01T13:22:47.561Z,84.38
2018-11-01T13:23:47.580Z,90.00
2018-11-01T13:24:47.560Z,84.38
2018-11-01T13:25:47.565Z,84.38
2018-11-01T13:26:47.556Z,78.75
2018-11-01T13:27:47.574Z,84.38
2018-11-01T13:28:47.556Z,84.38
2018-11-01T13:29:47.563Z,90.00
2018-11-01T13:30:47.538Z,90.00
2018-11-01T13:31:47.547Z,84.38
2018-11-01T13:32:47.536Z,90.00
2018-11-01T13:33:47.599Z,101.25
2018-11-01T13:34:47.697Z,90.00
2018-11-01T13:35:47.597Z,90.00
2018-11-01T13:36:47.594Z,101.25
2018-11-01T13:37:47.527Z,118.13
2018-11-01T13:38:47.547Z,112.50
2018-11-01T13:39:47.732Z,118.13
2018-11-01T13:40:47.901Z,84.38
2018-11-01T13:41:47.583Z,73.13
2018-11-01T13:42:48.328Z,90.00
2018-11-01T13:43:47.791Z,95.63
2018-11-01T13:44:47.525Z,84.38
2018-11-01T13:45:47.529Z,67.50
2018-11-01T13:46:47.544Z,67.50
2018-11-01T13:47:47.631Z,67.50
2018-11-01T13:48:47.524Z,67.50
2018-11-01T13:49:47.572Z,67.50
2018-11-01T13:50:47.520Z,67.50
2018-11-01T13:51:47.528Z,73.13
2018-11-01T13:52:47.524Z,73.13
2018-11-01T13:53:47.520Z,67.50
2018-11-01T13:54:47.677Z,84.38
2018-11-01T13:55:47.543Z,84.38
2018-11-01T13:56:47.523Z,106.88
2018-11-01T13:57:47.574Z,135.00
2018-11-01T13:58:47.519Z,129.38
2018-11-01T13:59:47.510Z,90.00
2018-11-01T14:00:47.525Z,84.38
2018-11-01T14:01:47.580Z,84.38
2018-11-01T14:02:47.775Z,84.38
2018-11-01T14:03:47.511Z,78.75
2018-11-01T14:04:47.503Z,90.00
2018-11-01T14:05:47.571Z,90.00
2018-11-01T14:06:47.535Z,84.38
2018-11-01T14:07:47.531Z,78.75
2018-11-01T14:08:47.513Z,73.13
2018-11-01T14:09:47.513Z,67.50
2018-11-01T14:10:47.520Z,67.50
2018-11-01T14:11:47.492Z,67.50
2018-11-01T14:12:47.524Z,56.25
2018-11-01T14:13:47.715Z,61.88
2018-11-01T14:14:47.604Z,67.50
2018-11-01T14:15:47.506Z,73.13
2018-11-01T14:16:47.498Z,84.38
2018-11-01T14:17:47.548Z,67.50
2018-11-01T14:18:47.550Z,73.13
2018-11-01T14:19:47.512Z,67.50
2018-11-01T14:20:47.547Z,95.63
2018-11-01T14:21:47.491Z,61.88
2018-11-01T14:22:47.499Z,56.25
2018-11-01T14:23:47.509Z,73.13
2018-11-01T14:24:47.547Z,90.00
2018-11-01T14:25:47.509Z,123.75
2018-11-01T14:26:47.505Z,123.75
2018-11-01T14:27:47.472Z,146.25
2018-11-01T14:28:47.481Z,129.38
2018-11-01T14:29:47.470Z,61.88
2018-11-01T14:30:47.495Z,56.25
2018-11-01T14:31:47.522Z,50.63
2018-11-01T14:32:47.487Z,56.25
2018-11-01T14:33:47.568Z,61.88
2018-11-01T14:34:47.493Z,50.63
2018-11-01T14:35:47.495Z,50.63
2018-11-01T14:36:47.488Z,45.00
2018-11-01T14:37:47.562Z,50.63
2018-11-01T14:38:47.474Z,50.63
2018-11-01T14:39:47.481Z,50.63
2018-11-01T14:40:47.470Z,56.25
2018-11-01T14:41:47.472Z,112.50
2018-11-01T14:42:47.468Z,84.38
2018-11-01T14:43:47.489Z,118.13
2018-11-01T14:44:47.466Z,67.50
2018-11-01T14:45:47.487Z,73.13
2018-11-01T14:46:47.537Z,67.50
2018-11-01T14:47:47.468Z,61.88
2018-11-01T14:48:47.468Z,61.88
2018-11-01T14:49:47.470Z,61.88
2018-11-01T14:50:47.514Z,61.88
2018-11-01T14:51:47.522Z,67.50
2018-11-01T14:52:47.575Z,67.50
2018-11-01T14:53:47.639Z,90.00
2018-11-01T14:54:48.775Z,112.50
2018-11-01T14:55:48.958Z,106.88
2018-11-01T14:56:48.606Z,73.13
2018-11-01T14:57:48.685Z,73.13
2018-11-01T14:58:48.642Z,61.88
2018-11-01T14:59:48.527Z,61.88
2018-11-01T15:00:47.462Z,67.50
2018-11-01T15:01:47.479Z,78.75
2018-11-01T15:02:47.450Z,61.88
2018-11-01T15:03:47.506Z,61.88
2018-11-01T15:04:47.430Z,61.88
2018-11-01T15:05:47.480Z,61.88
2018-11-01T15:06:47.460Z,61.88
2018-11-01T15:07:47.453Z,61.88
2018-11-01T15:08:47.447Z,61.88
2018-11-01T15:09:47.752Z,56.25
2018-11-01T15:10:47.419Z,56.25
2018-11-01T15:11:47.428Z,67.50
2018-11-01T15:12:47.456Z,84.38
2018-11-01T15:13:47.490Z,73.13
2018-11-01T15:14:47.446Z,73.13
2018-11-01T15:15:47.531Z,112.50
2018-11-01T15:16:47.450Z,95.63
2018-11-01T15:17:47.427Z,84.38
2018-11-01T15:18:47.431Z,123.75
2018-11-01T15:19:47.419Z,90.00
2018-11-01T15:20:47.509Z,118.13
2018-11-01T15:21:47.467Z,84.38
2018-11-01T15:22:47.419Z,95.63
2018-11-01T15:23:47.427Z,73.13
2018-11-01T15:24:47.413Z,78.75
2018-11-01T15:25:47.527Z,73.13
2018-11-01T15:26:47.468Z,84.38
2018-11-01T15:27:47.482Z,78.75
2018-11-01T15:28:47.430Z,67.50
2018-11-01T15:29:47.418Z,56.25
2018-11-01T15:30:47.530Z,50.63
2018-11-01T15:31:47.410Z,50.63
2018-11-01T15:32:47.463Z,50.63
2018-11-01T15:33:47.621Z,56.25
2018-11-01T15:34:47.421Z,56.25
2018-11-01T15:35:47.518Z,50.63
2018-11-01T15:36:47.423Z,50.63
2018-11-01T15:37:47.458Z,50.63
2018-11-01T15:38:47.465Z,50.63
2018-11-01T15:39:47.489Z,50.63
2018-11-01T15:40:47.520Z,56.25
2018-11-01T15:41:47.414Z,50.63
2018-11-01T15:42:47.411Z,50.63
2018-11-01T15:43:47.433Z,45.00
2018-11-01T15:44:47.415Z,39.38
2018-11-01T15:45:47.560Z,39.38
2018-11-01T15:46:47.383Z,33.75
2018-11-01T15:47:47.451Z,28.13
2018-11-01T15:48:47.408Z,28.13
2018-11-01T15:49:47.408Z,22.50
2018-11-01T15:50:47.650Z,16.88
2018-11-01T15:51:47.458Z,16.88
2018-11-01T15:52:47.382Z,16.88
2018-11-01T15:53:47.376Z,16.88
2018-11-01T15:54:47.393Z,16.88
2018-11-01T15:55:47.484Z,16.88
2018-11-01T15:56:47.381Z,16.88
2018-11-01T15:57:47.380Z,16.88
2018-11-01T15:58:47.381Z,22.50
2018-11-01T15:59:47.370Z,22.50
2018-11-01T16:00:47.358Z,22.50
2018-11-01T16:01:47.364Z,28.13
2018-11-01T16:02:47.408Z,28.13
2018-11-01T16:03:47.425Z,33.75
2018-11-01T16:04:47.348Z,33.75
2018-11-01T16:05:47.341Z,39.38
2018-11-01T16:06:47.453Z,45.00
2018-11-01T16:07:47.391Z,50.63
2018-11-01T16:08:47.343Z,56.25
2018-11-01T16:09:47.387Z,56.25
2018-11-01T16:10:47.329Z,61.88
2018-11-01T16:11:47.416Z,67.50
2018-11-01T16:12:47.331Z,73.13
2018-11-01T16:13:47.530Z,78.75
2018-11-01T16:14:47.333Z,73.13
2018-11-01T16:15:47.325Z,78.75
2018-11-01T16:16:47.313Z,78.75
2018-11-01T16:17:47.312Z,78.75
2018-11-01T16:18:47.319Z,73.13
2018-11-01T16:19:47.406Z,73.13
2018-11-01T16:20:47.304Z,73.13
2018-11-01T16:21:47.288Z,73.13
2018-11-01T16:22:47.273Z,73.13
2018-11-01T16:23:47.337Z,73.13
2018-11-01T16:24:47.292Z,73.13
2018-11-01T16:25:47.265Z,73.13
2018-11-01T16:26:47.299Z,73.13
2018-11-01T16:27:47.271Z,73.13
2018-11-01T16:28:47.282Z,73.13
2018-11-01T16:29:47.281Z,73.13
2018-11-01T16:30:47.266Z,73.13
2018-11-01T16:31:47.260Z,73.13
2018-11-01T16:32:47.245Z,73.13
2018-11-01T16:33:47.247Z,73.13
2018-11-01T16:34:47.253Z,73.13
2018-11-01T16:35:47.223Z,73.13
2018-11-01T16:36:47.282Z,73.13
2018-11-01T16:37:47.222Z,73.13
2018-11-01T16:38:47.228Z,73.13
2018-11-01T16:39:47.206Z,73.13
2018-11-01T16:40:47.259Z,73.13
2018-11-01T16:41:47.188Z,73.13
2018-11-01T16:42:47.435Z,67.50
2018-11-01T16:43:47.203Z,67.50
2018-11-01T16:44:47.213Z,67.50
2018-11-01T16:45:47.210Z,67.50
2018-11-01T16:46:47.186Z,67.50
2018-11-01T16:47:47.184Z,67.50
2018-11-01T16:48:47.176Z,67.50
2018-11-01T16:49:47.208Z,67.50
2018-11-01T16:50:47.228Z,67.50
2018-11-01T16:51:47.174Z,67.50
2018-11-01T16:52:47.468Z,67.50
2018-11-01T16:53:47.202Z,67.50
2018-11-01T16:54:47.141Z,67.50
2018-11-01T16:55:47.149Z,67.50
2018-11-01T16:56:47.142Z,67.50
2018-11-01T16:57:47.140Z,67.50
2018-11-01T16:58:47.151Z,61.88
2018-11-01T16:59:47.139Z,61.88
2018-11-01T17:00:47.132Z,67.50
2018-11-01T17:01:47.120Z,67.50
2018-11-01T17:02:47.169Z,67.50
2018-11-01T17:03:47.215Z,67.50
2018-11-01T17:04:47.104Z,61.88
2018-11-01T17:05:47.145Z,61.88
2018-11-01T17:06:47.113Z,61.88
2018-11-01T17:07:47.103Z,61.88
2018-11-01T17:08:47.261Z,56.25
2018-11-01T17:09:47.101Z,56.25
2018-11-01T17:10:47.089Z,56.25
2018-11-01T17:11:47.103Z,56.25
2018-11-01T17:12:47.071Z,50.63
2018-11-01T17:13:47.093Z,50.63
2018-11-01T17:14:47.054Z,50.63
2018-11-01T17:15:47.054Z,50.63
2018-11-01T17:16:47.117Z,45.00
2018-11-01T17:17:47.049Z,45.00
2018-11-01T17:18:47.040Z,50.63
2018-11-01T17:19:47.041Z,56.25
2018-11-01T17:20:47.041Z,61.88
2018-11-01T17:21:47.046Z,61.88
2018-11-01T17:22:47.083Z,61.88
2018-11-01T17:23:47.043Z,61.88
2018-11-01T17:24:47.107Z,61.88
2018-11-01T17:25:47.021Z,61.88
2018-11-01T17:26:47.023Z,61.88
2018-11-01T17:27:47.053Z,61.88
2018-11-01T17:28:47.022Z,61.88
2018-11-01T17:29:47.030Z,61.88
2018-11-01T17:30:46.981Z,61.88
2018-11-01T17:31:46.993Z,61.88
2018-11-01T17:32:47.005Z,61.88
2018-11-01T17:33:47.000Z,61.88
2018-11-01T17:34:46.998Z,61.88
2018-11-01T17:35:46.965Z,61.88
2018-11-01T17:36:46.979Z,61.88
2018-11-01T17:37:46.987Z,61.88
2018-11-01T17:38:46.972Z,61.88
2018-11-01T17:39:47.155Z,61.88
2018-11-01T17:40:46.963Z,67.50
2018-11-01T17:41:46.936Z,61.88
2018-11-01T17:42:46.945Z,61.88
2018-11-01T17:43:46.996Z,61.88
2018-11-01T17:44:46.983Z,61.88
2018-11-01T17:45:47.238Z,56.25
2018-11-01T17:46:46.927Z,56.25
2018-11-01T17:47:46.935Z,56.25
2018-11-01T17:48:46.958Z,50.63
2018-11-01T17:49:46.911Z,50.63
2018-11-01T17:50:46.919Z,50.63
2018-11-01T17:51:46.903Z,50.63
2018-11-01T17:52:46.902Z,50.63
2018-11-01T17:53:46.909Z,50.63
2018-11-01T17:54:46.884Z,50.63
2018-11-01T17:55:46.885Z,50.63
2018-11-01T17:56:46.894Z,50.63
2018-11-01T17:57:46.904Z,50.63
2018-11-01T17:58:46.865Z,50.63
2018-11-01T17:59:46.888Z,50.63
2018-11-01T18:00:46.861Z,50.63
2018-11-01T18:01:46.989Z,50.63
2018-11-01T18:02:46.930Z,50.63
2018-11-01T18:03:46.856Z,50.63
2018-11-01T18:04:46.837Z,50.63
2018-11-01T18:05:46.834Z,50.63
2018-11-01T18:06:46.938Z,50.63
2018-11-01T18:07:46.833Z,50.63
2018-11-01T18:08:46.834Z,50.63
2018-11-01T18:09:46.839Z,50.63
2018-11-01T18:10:46.801Z,50.63
2018-11-01T18:11:47.073Z,50.63
2018-11-01T18:12:46.808Z,50.63
2018-11-01T18:13:46.821Z,50.63
2018-11-01T18:14:46.785Z,50.63
2018-11-01T18:15:46.789Z,50.63
2018-11-01T18:16:46.899Z,50.63
2018-11-01T18:17:46.811Z,50.63
2018-11-01T18:18:46.788Z,50.63
2018-11-01T18:19:46.775Z,50.63
2018-11-01T18:20:46.770Z,50.63
2018-11-01T18:21:46.791Z,50.63
2018-11-01T18:22:46.755Z,50.63
2018-11-01T18:23:46.792Z,50.63
2018-11-01T18:24:46.752Z,50.63
2018-11-01T18:25:46.842Z,50.63
2018-11-01T18:26:47.042Z,50.63
2018-11-01T18:27:46.798Z,50.63
2018-11-01T18:28:46.806Z,56.25
2018-11-01T18:29:46.732Z,56.25
2018-11-01T18:30:46.793Z,56.25
2018-11-01T18:31:46.844Z,56.25
2018-11-01T18:32:46.903Z,61.88
2018-11-01T18:33:46.757Z,50.63
2018-11-01T18:34:46.879Z,50.63
2018-11-01T18:35:46.722Z,50.63
2018-11-01T18:36:46.707Z,50.63
2018-11-01T18:37:46.864Z,50.63
2018-11-01T18:38:46.697Z,50.63
2018-11-01T18:39:46.700Z,50.63
2018-11-01T18:40:46.676Z,50.63
2018-11-01T18:41:46.685Z,50.63
2018-11-01T18:42:46.835Z,50.63
2018-11-01T18:43:46.674Z,50.63
2018-11-01T18:44:46.673Z,50.63
2018-11-01T18:45:46.667Z,45.00
2018-11-01T18:46:46.667Z,45.00
2018-11-01T18:47:46.641Z,45.00
2018-11-01T18:48:46.666Z,45.00
2018-11-01T18:49:46.639Z,45.00
2018-11-01T18:50:46.650Z,45.00
2018-11-01T18:51:46.647Z,45.00
2018-11-01T18:52:46.684Z,45.00
2018-11-01T18:53:46.874Z,45.00
2018-11-01T18:54:46.701Z,45.00
2018-11-01T18:55:46.603Z,45.00
2018-11-01T18:56:46.602Z,45.00
2018-11-01T18:57:46.597Z,45.00
2018-11-01T18:58:46.857Z,39.38
2018-11-01T18:59:46.603Z,39.38
2018-11-01T19:00:46.728Z,33.75
2018-11-01T19:01:46.643Z,33.75
2018-11-01T19:02:46.582Z,33.75
2018-11-01T19:03:46.574Z,33.75
2018-11-01T19:04:46.587Z,33.75
2018-11-01T19:05:46.567Z,33.75
2018-11-01T19:06:46.616Z,39.38
2018-11-01T19:07:46.549Z,39.38
2018-11-01T19:08:46.608Z,39.38
2018-11-01T19:09:46.560Z,33.75
2018-11-01T19:10:46.559Z,33.75
2018-11-01T19:11:46.541Z,33.75
2018-11-01T19:12:46.532Z,33.75
2018-11-01T19:13:46.638Z,33.75
2018-11-01T19:14:46.724Z,28.13
2018-11-01T19:15:46.525Z,28.13
2018-11-01T19:16:46.505Z,28.13
2018-11-01T19:17:46.572Z,28.13
2018-11-01T19:18:46.487Z,28.13
2018-11-01T19:19:46.624Z,28.13
2018-11-01T19:20:46.488Z,28.13
2018-11-01T19:21:46.568Z,28.13
2018-11-01T19:22:46.488Z,28.13
2018-11-01T19:23:46.492Z,28.13
2018-11-01T19:24:46.485Z,28.13
2018-11-01T19:25:46.596Z,28.13
2018-11-01T19:26:46.567Z,22.50
2018-11-01T19:27:46.467Z,22.50
2018-11-01T19:28:46.456Z,22.50
2018-11-01T19:29:46.470Z,22.50
2018-11-01T19:30:46.536Z,28.13
2018-11-01T19:31:46.435Z,22.50
2018-11-01T19:32:46.483Z,22.50
2018-11-01T19:33:46.463Z,22.50
2018-11-01T19:34:46.426Z,22.50
2018-11-01T19:35:46.425Z,22.50
2018-11-01T19:36:46.421Z,22.50
2018-11-01T19:37:46.458Z,22.50
2018-11-01T19:38:46.402Z,22.50
2018-11-01T19:39:46.461Z,22.50
2018-11-01T19:40:46.409Z,22.50
2018-11-01T19:41:46.484Z,22.50
2018-11-01T19:42:46.383Z,33.75
2018-11-01T19:43:46.390Z,22.50
2018-11-01T19:44:46.380Z,16.88
2018-11-01T19:45:46.418Z,16.88
2018-11-01T19:46:46.374Z,16.88
2018-11-01T19:47:46.361Z,11.25
2018-11-01T19:48:46.354Z,11.25
2018-11-01T19:49:46.401Z,11.25
2018-11-01T19:50:46.352Z,11.25
2018-11-01T19:51:46.332Z,16.88
2018-11-01T19:52:46.337Z,22.50
2018-11-01T19:53:46.317Z,22.50
2018-11-01T19:54:46.317Z,28.13
2018-11-01T19:55:46.356Z,22.50
2018-11-01T19:56:46.303Z,22.50
2018-11-01T19:57:46.288Z,22.50
2018-11-01T19:58:46.314Z,22.50
2018-11-01T19:59:46.296Z,28.13
2018-11-01T20:00:46.287Z,22.50
2018-11-01T20:01:46.295Z,22.50
2018-11-01T20:02:46.315Z,16.88
2018-11-01T20:03:46.254Z,16.88
2018-11-01T20:04:46.253Z,11.25
2018-11-01T20:05:46.246Z,22.50
2018-11-01T20:06:46.243Z,22.50
2018-11-01T20:07:46.250Z,22.50
2018-11-01T20:08:46.262Z,22.50
2018-11-01T20:09:46.224Z,22.50
2018-11-01T20:10:46.239Z,22.50
2018-11-01T20:11:46.248Z,22.50
2018-11-01T20:12:46.212Z,22.50
2018-11-01T20:13:46.200Z,22.50
2018-11-01T20:14:46.329Z,16.88
2018-11-01T20:15:46.218Z,16.88
2018-11-01T20:16:46.185Z,16.88
2018-11-01T20:17:46.193Z,11.25
2018-11-01T20:18:46.257Z,11.25
2018-11-01T20:19:46.303Z,5.63
2018-11-01T20:20:46.147Z,5.63
2018-11-01T20:21:46.221Z,5.63
2018-11-01T20:22:46.154Z,5.63
2018-11-01T20:23:46.188Z,5.63
2018-11-01T20:24:46.146Z,5.63
2018-11-01T20:25:46.193Z,5.63
2018-11-01T20:26:46.135Z,5.63
2018-11-01T20:27:46.148Z,5.63
2018-11-01T20:28:46.115Z,5.63
2018-11-01T20:29:46.114Z,5.63
2018-11-01T20:30:46.130Z,5.63
2018-11-01T20:31:46.179Z,5.63
2018-11-01T20:32:46.099Z,5.63
2018-11-01T20:33:46.229Z,5.63
2018-11-01T20:34:46.065Z,5.63
2018-11-01T20:35:46.096Z,5.63
2018-11-01T20:36:46.076Z,0.00
2018-11-01T20:37:46.127Z,0.00
2018-11-01T20:38:46.309Z,0.00
2018-11-01T20:39:46.046Z,0.00
2018-11-01T20:40:46.035Z,0.00
2018-11-01T20:41:46.042Z,0.00
2018-11-01T20:42:46.042Z,0.00
2018-11-01T20:43:46.291Z,0.00
2018-11-01T20:44:46.018Z,0.00
2018-11-01T20:45:46.001Z,0.00
2018-11-01T20:46:45.995Z,0.00
2018-11-01T20:47:46.009Z,0.00
2018-11-01T20:48:46.006Z,0.00
2018-11-01T20:49:45.987Z,0.00
2018-11-01T20:50:46.006Z,0.00
2018-11-01T20:51:45.975Z,0.00
2018-11-01T20:52:45.976Z,0.00
2018-11-01T20:53:45.961Z,0.00
2018-11-01T20:54:46.192Z,0.00
2018-11-01T20:55:45.971Z,0.00
2018-11-01T20:56:45.927Z,0.00
2018-11-01T20:57:46.109Z,0.00
2018-11-01T20:58:45.939Z,0.00
2018-11-01T20:59:46.031Z,0.00
2018-11-01T21:00:45.971Z,0.00
2018-11-01T21:01:45.897Z,0.00
2018-11-01T21:02:45.891Z,0.00
2018-11-01T21:03:45.899Z,0.00
2018-11-01T21:04:45.906Z,0.00
2018-11-01T21:05:45.894Z,0.00
2018-11-01T21:06:45.870Z,0.00
2018-11-01T21:07:45.880Z,0.00
2018-11-01T21:08:45.875Z,0.00
2018-11-01T21:09:45.852Z,0.00
2018-11-01T21:10:46.143Z,0.00
2018-11-01T21:11:46.114Z,0.00
2018-11-01T21:12:45.918Z,0.00
2018-11-01T21:13:45.838Z,0.00
2018-11-01T21:14:45.855Z,0.00
2018-11-01T21:15:45.942Z,0.00
2018-11-01T21:16:45.887Z,0.00
2018-11-01T21:17:45.811Z,0.00
2018-11-01T21:18:45.845Z,0.00
2018-11-01T21:19:45.789Z,0.00
2018-11-01T21:20:46.118Z,0.00
2018-11-01T21:21:45.788Z,0.00
2018-11-01T21:22:45.771Z,0.00
2018-11-01T21:23:45.788Z,0.00
2018-11-01T21:24:47.862Z,0.00
2018-11-01T21:25:45.758Z,0.00
2018-11-01T21:26:45.735Z,0.00
2018-11-01T21:27:45.742Z,0.00
2018-11-01T21:28:45.719Z,0.00
2018-11-01T21:29:45.779Z,0.00
2018-11-01T21:30:45.728Z,0.00
2018-11-01T21:31:45.724Z,0.00
2018-11-01T21:32:45.757Z,0.00
2018-11-01T21:33:45.702Z,0.00
2018-11-01T21:34:45.713Z,0.00
2018-11-01T21:35:45.728Z,0.00
2018-11-01T21:36:45.685Z,0.00
2018-11-01T21:37:45.691Z,0.00
2018-11-01T21:38:45.723Z,0.00
2018-11-01T21:39:45.648Z,0.00
2018-11-01T21:40:45.713Z,0.00
2018-11-01T21:41:45.634Z,0.00
2018-11-01T21:42:45.935Z,0.00
2018-11-01T21:43:45.628Z,0.00
2018-11-01T21:44:45.699Z,0.00
2018-11-01T21:45:45.639Z,0.00
2018-11-01T21:46:45.629Z,0.00
2018-11-01T21:47:45.615Z,0.00
2018-11-01T21:48:45.609Z,0.00
2018-11-01T21:49:45.662Z,0.00
2018-11-01T21:50:45.602Z,0.00
2018-11-01T21:51:45.587Z,0.00
2018-11-01T21:52:45.600Z,0.00
2018-11-01T21:53:45.627Z,0.00
2018-11-01T21:54:45.579Z,0.00
2018-11-01T21:55:45.545Z,0.00
2018-11-01T21:56:45.550Z,0.00
2018-11-01T21:57:45.553Z,0.00
2018-11-01T21:58:45.646Z,0.00
2018-11-01T21:59:45.523Z,0.00
2018-11-01T22:00:45.544Z,0.00
2018-11-01T22:01:45.568Z,0.00
2018-11-01T22:02:45.532Z,0.00
2018-11-01T22:03:45.622Z,0.00
2018-11-01T22:04:45.552Z,0.00
2018-11-01T22:05:45.513Z,0.00
2018-11-01T22:06:45.510Z,0.00
2018-11-01T22:07:45.487Z,0.00
2018-11-01T22:08:45.477Z,0.00
2018-11-01T22:09:45.716Z,0.00
2018-11-01T22:10:45.525Z,0.00
2018-11-01T22:11:45.483Z,0.00
2018-11-01T22:12:45.467Z,0.00
2018-11-01T22:13:45.445Z,0.00
2018-11-01T22:14:45.438Z,0.00
2018-11-01T22:15:45.697Z,0.00
2018-11-01T22:16:45.437Z,0.00
2018-11-01T22:17:45.423Z,0.00
2018-11-01T22:18:45.400Z,0.00
2018-11-01T22:19:45.440Z,0.00
2018-11-01T22:20:45.510Z,0.00
2018-11-01T22:21:45.398Z,0.00
2018-11-01T22:22:45.388Z,0.00
2018-11-01T22:23:45.379Z,0.00
2018-11-01T22:24:45.378Z,0.00
2018-11-01T22:25:45.371Z,0.00
2018-11-01T22:26:45.459Z,0.00
2018-11-01T22:27:45.379Z,0.00
2018-11-01T22:28:45.464Z,0.00
2018-11-01T22:29:45.338Z,0.00
2018-11-01T22:30:45.315Z,0.00
2018-11-01T22:31:45.316Z,0.00
2018-11-01T22:32:45.336Z,0.00
2018-11-01T22:33:45.313Z,0.00
2018-11-01T22:34:45.320Z,0.00
2018-11-01T22:35:45.312Z,0.00
2018-11-01T22:36:45.443Z,0.00
2018-11-01T22:37:45.278Z,0.00
2018-11-01T22:38:45.413Z,0.00
2018-11-01T22:39:45.329Z,0.00
2018-11-01T22:40:45.274Z,0.00
2018-11-01T22:41:45.553Z,0.00
2018-11-01T22:42:45.258Z,0.00
2018-11-01T22:43:45.245Z,0.00
2018-11-01T22:44:45.253Z,0.00
2018-11-01T22:45:45.228Z,0.00
2018-11-01T22:46:45.222Z,0.00
2018-11-01T22:47:45.224Z,0.00
2018-11-01T22:48:45.211Z,0.00
2018-11-01T22:49:45.242Z,0.00
2018-11-01T22:50:45.195Z,0.00
2018-11-01T22:51:45.212Z,0.00
2018-11-01T22:52:45.332Z,0.00
2018-11-01T22:53:45.202Z,0.00
2018-11-01T22:54:45.164Z,0.00
2018-11-01T22:55:45.190Z,0.00
2018-11-01T22:56:45.141Z,0.00
2018-11-01T22:57:45.174Z,0.00
2018-11-01T22:58:45.265Z,0.00
2018-11-01T22:59:45.184Z,0.00
2018-11-01T23:00:45.145Z,0.00
2018-11-01T23:01:45.126Z,0.00
2018-11-01T23:02:45.121Z,0.00
2018-11-01T23:03:45.231Z,0.00
2018-11-01T23:04:45.105Z,0.00
2018-11-01T23:05:45.110Z,0.00
2018-11-01T23:06:45.113Z,0.00
2018-11-01T23:07:45.099Z,0.00
2018-11-01T23:08:45.066Z,0.00
2018-11-01T23:09:45.072Z,0.00
2018-11-01T23:10:45.084Z,0.00
2018-11-01T23:11:45.057Z,0.00
2018-11-01T23:12:45.043Z,0.00
2018-11-01T23:13:45.059Z,0.00
2018-11-01T23:14:45.084Z,0.00
2018-11-01T23:15:45.054Z,0.00
2018-11-01T23:16:45.064Z,0.00
2018-11-01T23:17:45.022Z,0.00
2018-11-01T23:18:45.005Z,0.00
2018-11-01T23:19:45.226Z,0.00
2018-11-01T23:20:44.999Z,0.00
2018-11-01T23:21:45.008Z,0.00
2018-11-01T23:22:45.006Z,0.00
2018-11-01T23:23:44.973Z,0.00
2018-11-01T23:24:45.271Z,0.00
2018-11-01T23:25:44.973Z,0.00
2018-11-01T23:26:44.986Z,0.00
2018-11-01T23:27:44.931Z,0.00
2018-11-01T23:28:44.959Z,0.00
2018-11-01T23:29:44.951Z,0.00
2018-11-01T23:30:45.240Z,0.00
2018-11-01T23:31:44.934Z,0.00
2018-11-01T23:32:44.919Z,0.00
2018-11-01T23:33:44.929Z,0.00
2018-11-01T23:34:44.902Z,0.00
2018-11-01T23:35:44.885Z,0.00
2018-11-01T23:36:45.336Z,0.00
2018-11-01T23:37:44.881Z,0.00
2018-11-01T23:38:44.867Z,0.00
2018-11-01T23:39:44.877Z,0.00
2018-11-01T23:40:44.855Z,0.00
2018-11-01T23:41:44.861Z,0.00
2018-11-01T23:42:44.840Z,0.00
2018-11-01T23:43:44.852Z,0.00
2018-11-01T23:44:44.847Z,0.00
2018-11-01T23:45:44.829Z,0.00
2018-11-01T23:46:44.819Z,0.00
2018-11-01T23:47:44.815Z,0.00
2018-11-01T23:48:44.820Z,0.00
2018-11-01T23:49:44.843Z,0.00
2018-11-01T23:50:44.812Z,0.00
2018-11-01T23:51:44.800Z,0.00
2018-11-01T23:52:44.766Z,0.00
2018-11-01T23:53:44.773Z,0.00
2018-11-01T23:54:44.773Z,0.00
2018-11-01T23:55:44.772Z,0.00
2018-11-01T23:56:44.760Z,0.00
2018-11-01T23:57:45.058Z,0.00
2018-11-01T23:58:44.721Z,0.00
2018-11-01T23:59:44.738Z,0.00
